sensor_id;sensor_type;location;lat;lon;timestamp;P1;durP1;ratioP1;P2;durP2;ratioP2
74223;SDS011;62585;49.706;18.216;2023-04-25T00:02:21;4.03;;;2.47;;
74223;SDS011;62585;49.706;18.216;2023-04-25T00:04:47;4.47;;;2.50;;
74223;SDS011;62585;49.706;18.216;2023-04-25T00:07:13;4.93;;;2.35;;
74223;SDS011;62585;49.706;18.216;2023-04-25T00:09:40;6.13;;;2.80;;
74223;SDS011;62585;49.706;18.216;2023-04-25T00:12:07;6.65;;;2.92;;
74223;SDS011;62585;49.706;18.216;2023-04-25T00:14:34;3.53;;;1.50;;
74223;SDS011;62585;49.706;18.216;2023-04-25T00:17:01;5.85;;;1.90;;
74223;SDS011;62585;49.706;18.216;2023-04-25T00:19:28;3.55;;;2.00;;
74223;SDS011;62585;49.706;18.216;2023-04-25T00:21:54;1.85;;;1.17;;
74223;SDS011;62585;49.706;18.216;2023-04-25T00:24:21;4.15;;;2.42;;
74223;SDS011;62585;49.706;18.216;2023-04-25T00:26:46;2.25;;;1.30;;
74223;SDS011;62585;49.706;18.216;2023-04-25T00:29:13;3.53;;;2.03;;
74223;SDS011;62585;49.706;18.216;2023-04-25T00:31:38;2.85;;;2.03;;
74223;SDS011;62585;49.706;18.216;2023-04-25T00:34:05;4.00;;;1.88;;
74223;SDS011;62585;49.706;18.216;2023-04-25T00:36:31;2.90;;;1.85;;
74223;SDS011;62585;49.706;18.216;2023-04-25T00:38:57;2.40;;;1.35;;
74223;SDS011;62585;49.706;18.216;2023-04-25T00:41:23;1.60;;;1.20;;
74223;SDS011;62585;49.706;18.216;2023-04-25T00:43:51;2.72;;;1.75;;
74223;SDS011;62585;49.706;18.216;2023-04-25T00:46:18;2.25;;;1.48;;
74223;SDS011;62585;49.706;18.216;2023-04-25T00:48:44;2.20;;;1.38;;
74223;SDS011;62585;49.706;18.216;2023-04-25T00:51:11;2.53;;;1.38;;
74223;SDS011;62585;49.706;18.216;2023-04-25T00:53:41;2.35;;;1.35;;
74223;SDS011;62585;49.706;18.216;2023-04-25T00:56:07;1.30;;;1.20;;
74223;SDS011;62585;49.706;18.216;2023-04-25T00:58:33;4.30;;;2.00;;
74223;SDS011;62585;49.706;18.216;2023-04-25T01:00:59;3.50;;;1.67;;
74223;SDS011;62585;49.706;18.216;2023-04-25T01:03:26;2.70;;;1.67;;
74223;SDS011;62585;49.706;18.216;2023-04-25T01:05:53;4.15;;;1.70;;
74223;SDS011;62585;49.706;18.216;2023-04-25T01:08:21;2.42;;;1.73;;
74223;SDS011;62585;49.706;18.216;2023-04-25T01:10:50;2.92;;;2.22;;
74223;SDS011;62585;49.706;18.216;2023-04-25T01:13:16;4.57;;;2.00;;
74223;SDS011;62585;49.706;18.216;2023-04-25T01:15:42;3.35;;;1.88;;
74223;SDS011;62585;49.706;18.216;2023-04-25T01:18:09;4.18;;;1.92;;
74223;SDS011;62585;49.706;18.216;2023-04-25T01:20:35;5.25;;;2.05;;
74223;SDS011;62585;49.706;18.216;2023-04-25T01:23:04;3.72;;;2.10;;
74223;SDS011;62585;49.706;18.216;2023-04-25T01:25:30;2.78;;;1.98;;
74223;SDS011;62585;49.706;18.216;2023-04-25T01:27:57;3.47;;;1.75;;
74223;SDS011;62585;49.706;18.216;2023-04-25T01:30:25;3.28;;;1.88;;
74223;SDS011;62585;49.706;18.216;2023-04-25T01:32:52;3.42;;;1.33;;
74223;SDS011;62585;49.706;18.216;2023-04-25T01:35:21;4.28;;;2.00;;
74223;SDS011;62585;49.706;18.216;2023-04-25T01:37:49;3.00;;;2.08;;
74223;SDS011;62585;49.706;18.216;2023-04-25T01:40:16;4.40;;;2.53;;
74223;SDS011;62585;49.706;18.216;2023-04-25T01:42:44;2.33;;;1.65;;
74223;SDS011;62585;49.706;18.216;2023-04-25T01:45:10;3.72;;;2.45;;
74223;SDS011;62585;49.706;18.216;2023-04-25T01:47:37;3.42;;;1.63;;
74223;SDS011;62585;49.706;18.216;2023-04-25T01:50:05;2.80;;;1.88;;
74223;SDS011;62585;49.706;18.216;2023-04-25T01:52:33;3.75;;;1.50;;
74223;SDS011;62585;49.706;18.216;2023-04-25T01:55:01;3.88;;;2.42;;
74223;SDS011;62585;49.706;18.216;2023-04-25T01:57:28;2.30;;;1.38;;
74223;SDS011;62585;49.706;18.216;2023-04-25T02:00:00;2.75;;;1.52;;
74223;SDS011;62585;49.706;18.216;2023-04-25T02:02:28;2.85;;;1.33;;
74223;SDS011;62585;49.706;18.216;2023-04-25T02:04:54;3.53;;;2.10;;
74223;SDS011;62585;49.706;18.216;2023-04-25T02:07:20;2.63;;;1.45;;
74223;SDS011;62585;49.706;18.216;2023-04-25T02:09:46;1.60;;;1.17;;
74223;SDS011;62585;49.706;18.216;2023-04-25T02:12:12;2.45;;;1.58;;
74223;SDS011;62585;49.706;18.216;2023-04-25T02:14:37;4.13;;;2.25;;
74223;SDS011;62585;49.706;18.216;2023-04-25T02:17:03;3.95;;;1.63;;
74223;SDS011;62585;49.706;18.216;2023-04-25T02:19:29;2.28;;;1.58;;
74223;SDS011;62585;49.706;18.216;2023-04-25T02:21:55;2.60;;;1.45;;
74223;SDS011;62585;49.706;18.216;2023-04-25T02:24:22;2.90;;;1.80;;
74223;SDS011;62585;49.706;18.216;2023-04-25T02:26:48;1.77;;;1.27;;
74223;SDS011;62585;49.706;18.216;2023-04-25T02:29:14;1.95;;;1.48;;
74223;SDS011;62585;49.706;18.216;2023-04-25T02:31:41;2.20;;;1.70;;
74223;SDS011;62585;49.706;18.216;2023-04-25T02:34:07;2.60;;;1.55;;
74223;SDS011;62585;49.706;18.216;2023-04-25T02:36:33;2.60;;;1.50;;
74223;SDS011;62585;49.706;18.216;2023-04-25T02:39:00;2.30;;;1.70;;
74223;SDS011;62585;49.706;18.216;2023-04-25T02:41:28;3.47;;;2.20;;
74223;SDS011;62585;49.706;18.216;2023-04-25T02:43:54;2.72;;;1.80;;
74223;SDS011;62585;49.706;18.216;2023-04-25T02:46:20;2.80;;;1.85;;
74223;SDS011;62585;49.706;18.216;2023-04-25T02:48:46;2.75;;;1.73;;
74223;SDS011;62585;49.706;18.216;2023-04-25T02:51:11;2.47;;;1.70;;
74223;SDS011;62585;49.706;18.216;2023-04-25T02:53:37;2.53;;;1.58;;
74223;SDS011;62585;49.706;18.216;2023-04-25T02:56:03;3.65;;;1.77;;
74223;SDS011;62585;49.706;18.216;2023-04-25T02:58:29;2.67;;;1.80;;
74223;SDS011;62585;49.706;18.216;2023-04-25T03:00:55;3.53;;;1.98;;
74223;SDS011;62585;49.706;18.216;2023-04-25T03:03:21;2.22;;;1.48;;
74223;SDS011;62585;49.706;18.216;2023-04-25T03:05:50;1.98;;;1.30;;
74223;SDS011;62585;49.706;18.216;2023-04-25T03:08:16;2.00;;;1.48;;
74223;SDS011;62585;49.706;18.216;2023-04-25T03:10:43;2.97;;;1.38;;
74223;SDS011;62585;49.706;18.216;2023-04-25T03:13:09;2.83;;;1.65;;
74223;SDS011;62585;49.706;18.216;2023-04-25T03:15:35;3.28;;;1.67;;
74223;SDS011;62585;49.706;18.216;2023-04-25T03:18:01;3.63;;;1.70;;
74223;SDS011;62585;49.706;18.216;2023-04-25T03:20:27;4.80;;;1.60;;
74223;SDS011;62585;49.706;18.216;2023-04-25T03:22:53;2.10;;;1.17;;
74223;SDS011;62585;49.706;18.216;2023-04-25T03:25:19;2.38;;;1.30;;
74223;SDS011;62585;49.706;18.216;2023-04-25T03:27:45;2.67;;;1.52;;
74223;SDS011;62585;49.706;18.216;2023-04-25T03:30:11;2.88;;;1.15;;
74223;SDS011;62585;49.706;18.216;2023-04-25T03:32:36;1.77;;;1.40;;
74223;SDS011;62585;49.706;18.216;2023-04-25T03:35:03;3.65;;;1.55;;
74223;SDS011;62585;49.706;18.216;2023-04-25T03:37:30;2.83;;;1.70;;
74223;SDS011;62585;49.706;18.216;2023-04-25T03:39:56;2.45;;;1.15;;
74223;SDS011;62585;49.706;18.216;2023-04-25T03:42:22;4.03;;;2.00;;
74223;SDS011;62585;49.706;18.216;2023-04-25T03:44:48;2.45;;;1.73;;
74223;SDS011;62585;49.706;18.216;2023-04-25T03:47:15;2.05;;;1.40;;
74223;SDS011;62585;49.706;18.216;2023-04-25T03:49:41;3.38;;;1.80;;
74223;SDS011;62585;49.706;18.216;2023-04-25T03:52:06;1.98;;;1.27;;
74223;SDS011;62585;49.706;18.216;2023-04-25T03:54:32;2.25;;;1.42;;
74223;SDS011;62585;49.706;18.216;2023-04-25T03:56:58;2.70;;;1.40;;
74223;SDS011;62585;49.706;18.216;2023-04-25T03:59:24;2.47;;;1.60;;
74223;SDS011;62585;49.706;18.216;2023-04-25T04:01:51;2.95;;;1.50;;
74223;SDS011;62585;49.706;18.216;2023-04-25T04:04:17;2.75;;;1.80;;
74223;SDS011;62585;49.706;18.216;2023-04-25T04:06:43;4.00;;;1.80;;
74223;SDS011;62585;49.706;18.216;2023-04-25T04:09:10;1.85;;;1.05;;
74223;SDS011;62585;49.706;18.216;2023-04-25T04:11:36;2.88;;;1.65;;
74223;SDS011;62585;49.706;18.216;2023-04-25T04:14:07;3.47;;;1.55;;
74223;SDS011;62585;49.706;18.216;2023-04-25T04:16:32;2.55;;;1.20;;
74223;SDS011;62585;49.706;18.216;2023-04-25T04:18:58;2.65;;;1.40;;
74223;SDS011;62585;49.706;18.216;2023-04-25T04:21:24;2.72;;;1.45;;
74223;SDS011;62585;49.706;18.216;2023-04-25T04:23:50;3.63;;;2.17;;
74223;SDS011;62585;49.706;18.216;2023-04-25T04:26:15;3.38;;;1.52;;
74223;SDS011;62585;49.706;18.216;2023-04-25T04:28:42;3.72;;;1.98;;
74223;SDS011;62585;49.706;18.216;2023-04-25T04:31:09;2.42;;;1.00;;
74223;SDS011;62585;49.706;18.216;2023-04-25T04:33:36;2.55;;;1.40;;
74223;SDS011;62585;49.706;18.216;2023-04-25T04:36:02;1.83;;;1.60;;
74223;SDS011;62585;49.706;18.216;2023-04-25T04:38:29;2.53;;;1.38;;
74223;SDS011;62585;49.706;18.216;2023-04-25T04:40:55;3.38;;;1.48;;
74223;SDS011;62585;49.706;18.216;2023-04-25T04:43:21;3.92;;;1.92;;
74223;SDS011;62585;49.706;18.216;2023-04-25T04:45:48;5.93;;;1.70;;
74223;SDS011;62585;49.706;18.216;2023-04-25T04:50:44;3.75;;;2.13;;
74223;SDS011;62585;49.706;18.216;2023-04-25T04:53:12;2.97;;;2.08;;
74223;SDS011;62585;49.706;18.216;2023-04-25T04:55:38;3.17;;;2.17;;
74223;SDS011;62585;49.706;18.216;2023-04-25T04:58:07;3.85;;;1.92;;
74223;SDS011;62585;49.706;18.216;2023-04-25T05:00:33;3.35;;;1.80;;
74223;SDS011;62585;49.706;18.216;2023-04-25T05:02:59;3.20;;;1.58;;
74223;SDS011;62585;49.706;18.216;2023-04-25T05:05:25;4.03;;;2.10;;
74223;SDS011;62585;49.706;18.216;2023-04-25T05:07:51;3.13;;;2.38;;
74223;SDS011;62585;49.706;18.216;2023-04-25T05:10:18;2.47;;;1.50;;
74223;SDS011;62585;49.706;18.216;2023-04-25T05:12:44;7.00;;;2.22;;
74223;SDS011;62585;49.706;18.216;2023-04-25T05:15:10;2.72;;;2.28;;
74223;SDS011;62585;49.706;18.216;2023-04-25T05:17:36;2.95;;;2.05;;
74223;SDS011;62585;49.706;18.216;2023-04-25T05:20:02;4.40;;;2.13;;
74223;SDS011;62585;49.706;18.216;2023-04-25T05:22:31;3.25;;;2.33;;
74223;SDS011;62585;49.706;18.216;2023-04-25T05:24:56;7.03;;;2.67;;
74223;SDS011;62585;49.706;18.216;2023-04-25T05:27:24;4.03;;;1.98;;
74223;SDS011;62585;49.706;18.216;2023-04-25T05:32:15;2.83;;;1.50;;
74223;SDS011;62585;49.706;18.216;2023-04-25T05:34:41;2.33;;;1.55;;
74223;SDS011;62585;49.706;18.216;2023-04-25T05:37:07;4.63;;;2.10;;
74223;SDS011;62585;49.706;18.216;2023-04-25T05:39:32;4.30;;;2.55;;
74223;SDS011;62585;49.706;18.216;2023-04-25T05:41:58;6.85;;;3.75;;
74223;SDS011;62585;49.706;18.216;2023-04-25T05:44:24;6.85;;;3.97;;
74223;SDS011;62585;49.706;18.216;2023-04-25T05:46:50;4.65;;;3.35;;
74223;SDS011;62585;49.706;18.216;2023-04-25T05:49:16;8.75;;;4.50;;
74223;SDS011;62585;49.706;18.216;2023-04-25T05:51:42;7.65;;;4.18;;
74223;SDS011;62585;49.706;18.216;2023-04-25T05:54:07;7.07;;;4.32;;
74223;SDS011;62585;49.706;18.216;2023-04-25T05:56:33;3.88;;;2.45;;
74223;SDS011;62585;49.706;18.216;2023-04-25T05:58:59;7.18;;;3.50;;
74223;SDS011;62585;49.706;18.216;2023-04-25T06:01:25;7.15;;;3.92;;
74223;SDS011;62585;49.706;18.216;2023-04-25T06:03:50;4.93;;;3.97;;
74223;SDS011;62585;49.706;18.216;2023-04-25T06:06:18;9.70;;;3.10;;
74223;SDS011;62585;49.706;18.216;2023-04-25T06:08:44;6.93;;;3.58;;
74223;SDS011;62585;49.706;18.216;2023-04-25T06:11:10;8.77;;;3.03;;
74223;SDS011;62585;49.706;18.216;2023-04-25T06:13:36;5.43;;;3.00;;
74223;SDS011;62585;49.706;18.216;2023-04-25T06:16:02;4.97;;;2.70;;
74223;SDS011;62585;49.706;18.216;2023-04-25T06:18:28;5.22;;;2.80;;
74223;SDS011;62585;49.706;18.216;2023-04-25T06:20:54;4.60;;;2.42;;
74223;SDS011;62585;49.706;18.216;2023-04-25T06:23:19;4.25;;;2.40;;
74223;SDS011;62585;49.706;18.216;2023-04-25T06:25:45;5.35;;;2.75;;
74223;SDS011;62585;49.706;18.216;2023-04-25T06:28:11;4.95;;;2.28;;
74223;SDS011;62585;49.706;18.216;2023-04-25T06:30:37;4.20;;;2.15;;
74223;SDS011;62585;49.706;18.216;2023-04-25T06:33:03;7.55;;;3.65;;
74223;SDS011;62585;49.706;18.216;2023-04-25T06:35:29;4.65;;;2.40;;
74223;SDS011;62585;49.706;18.216;2023-04-25T06:37:54;4.85;;;2.65;;
74223;SDS011;62585;49.706;18.216;2023-04-25T06:40:20;3.65;;;2.05;;
74223;SDS011;62585;49.706;18.216;2023-04-25T06:42:46;4.72;;;2.80;;
74223;SDS011;62585;49.706;18.216;2023-04-25T06:45:12;4.55;;;3.00;;
74223;SDS011;62585;49.706;18.216;2023-04-25T06:47:38;2.88;;;2.55;;
74223;SDS011;62585;49.706;18.216;2023-04-25T06:50:04;3.58;;;2.55;;
74223;SDS011;62585;49.706;18.216;2023-04-25T06:52:31;4.13;;;1.92;;
74223;SDS011;62585;49.706;18.216;2023-04-25T06:54:56;3.80;;;2.72;;
74223;SDS011;62585;49.706;18.216;2023-04-25T06:57:22;3.53;;;2.08;;
74223;SDS011;62585;49.706;18.216;2023-04-25T06:59:48;4.95;;;2.47;;
74223;SDS011;62585;49.706;18.216;2023-04-25T07:02:14;5.10;;;2.70;;
74223;SDS011;62585;49.706;18.216;2023-04-25T07:04:40;3.38;;;1.90;;
74223;SDS011;62585;49.706;18.216;2023-04-25T07:07:05;3.90;;;1.95;;
74223;SDS011;62585;49.706;18.216;2023-04-25T07:09:31;7.75;;;1.85;;
74223;SDS011;62585;49.706;18.216;2023-04-25T07:11:59;3.75;;;2.47;;
74223;SDS011;62585;49.706;18.216;2023-04-25T07:14:27;12.23;;;1.58;;
74223;SDS011;62585;49.706;18.216;2023-04-25T07:16:53;3.38;;;1.98;;
74223;SDS011;62585;49.706;18.216;2023-04-25T07:19:21;7.70;;;1.98;;
74223;SDS011;62585;49.706;18.216;2023-04-25T07:21:46;5.38;;;2.22;;
74223;SDS011;62585;49.706;18.216;2023-04-25T07:24:12;6.15;;;2.05;;
74223;SDS011;62585;49.706;18.216;2023-04-25T07:26:38;2.78;;;1.60;;
74223;SDS011;62585;49.706;18.216;2023-04-25T07:29:04;2.92;;;1.67;;
74223;SDS011;62585;49.706;18.216;2023-04-25T07:31:29;3.22;;;1.85;;
74223;SDS011;62585;49.706;18.216;2023-04-25T07:33:55;3.53;;;1.95;;
74223;SDS011;62585;49.706;18.216;2023-04-25T07:36:21;2.90;;;2.22;;
74223;SDS011;62585;49.706;18.216;2023-04-25T07:38:47;3.13;;;1.92;;
74223;SDS011;62585;49.706;18.216;2023-04-25T07:41:12;2.70;;;1.65;;
74223;SDS011;62585;49.706;18.216;2023-04-25T07:43:38;4.53;;;2.60;;
74223;SDS011;62585;49.706;18.216;2023-04-25T07:46:04;3.75;;;1.98;;
74223;SDS011;62585;49.706;18.216;2023-04-25T07:48:30;5.53;;;2.30;;
74223;SDS011;62585;49.706;18.216;2023-04-25T07:50:56;1.83;;;1.13;;
74223;SDS011;62585;49.706;18.216;2023-04-25T07:53:21;4.43;;;1.98;;
74223;SDS011;62585;49.706;18.216;2023-04-25T07:55:47;4.63;;;1.42;;
74223;SDS011;62585;49.706;18.216;2023-04-25T07:58:13;2.28;;;1.35;;
74223;SDS011;62585;49.706;18.216;2023-04-25T08:00:40;4.80;;;1.58;;
74223;SDS011;62585;49.706;18.216;2023-04-25T08:03:06;1.77;;;1.17;;
74223;SDS011;62585;49.706;18.216;2023-04-25T08:05:33;3.65;;;1.70;;
74223;SDS011;62585;49.706;18.216;2023-04-25T08:07:58;3.80;;;1.65;;
74223;SDS011;62585;49.706;18.216;2023-04-25T08:10:24;7.05;;;1.45;;
74223;SDS011;62585;49.706;18.216;2023-04-25T08:12:50;4.05;;;1.40;;
74223;SDS011;62585;49.706;18.216;2023-04-25T08:15:16;2.47;;;1.30;;
74223;SDS011;62585;49.706;18.216;2023-04-25T08:17:42;4.47;;;1.35;;
74223;SDS011;62585;49.706;18.216;2023-04-25T08:22:36;5.75;;;1.45;;
74223;SDS011;62585;49.706;18.216;2023-04-25T08:25:01;2.85;;;1.83;;
74223;SDS011;62585;49.706;18.216;2023-04-25T08:27:27;2.80;;;1.50;;
74223;SDS011;62585;49.706;18.216;2023-04-25T08:29:53;3.10;;;1.83;;
74223;SDS011;62585;49.706;18.216;2023-04-25T08:32:19;4.20;;;1.95;;
74223;SDS011;62585;49.706;18.216;2023-04-25T08:34:46;2.78;;;1.90;;
74223;SDS011;62585;49.706;18.216;2023-04-25T08:37:12;3.53;;;1.70;;
74223;SDS011;62585;49.706;18.216;2023-04-25T08:39:38;2.83;;;1.35;;
74223;SDS011;62585;49.706;18.216;2023-04-25T08:42:05;3.00;;;1.40;;
74223;SDS011;62585;49.706;18.216;2023-04-25T08:44:35;2.60;;;1.23;;
74223;SDS011;62585;49.706;18.216;2023-04-25T08:47:04;2.75;;;1.45;;
74223;SDS011;62585;49.706;18.216;2023-04-25T08:49:34;3.38;;;1.52;;
74223;SDS011;62585;49.706;18.216;2023-04-25T08:52:00;4.63;;;1.98;;
74223;SDS011;62585;49.706;18.216;2023-04-25T08:54:28;2.85;;;1.55;;
74223;SDS011;62585;49.706;18.216;2023-04-25T08:56:56;3.28;;;1.27;;
74223;SDS011;62585;49.706;18.216;2023-04-25T08:59:23;4.03;;;1.85;;
74223;SDS011;62585;49.706;18.216;2023-04-25T09:01:49;6.28;;;1.60;;
74223;SDS011;62585;49.706;18.216;2023-04-25T09:06:43;4.65;;;1.65;;
74223;SDS011;62585;49.706;18.216;2023-04-25T09:09:08;3.35;;;1.52;;
74223;SDS011;62585;49.706;18.216;2023-04-25T09:11:36;4.75;;;1.75;;
74223;SDS011;62585;49.706;18.216;2023-04-25T09:16:58;2.92;;;1.33;;
74223;SDS011;62585;49.706;18.216;2023-04-25T09:19:27;4.22;;;1.85;;
74223;SDS011;62585;49.706;18.216;2023-04-25T09:21:58;3.70;;;1.58;;
74223;SDS011;62585;49.706;18.216;2023-04-25T09:27:27;3.00;;;1.63;;
74223;SDS011;62585;49.706;18.216;2023-04-25T09:29:57;3.17;;;1.92;;
74223;SDS011;62585;49.706;18.216;2023-04-25T09:32:25;3.85;;;2.20;;
74223;SDS011;62585;49.706;18.216;2023-04-25T09:34:52;1.88;;;1.35;;
74223;SDS011;62585;49.706;18.216;2023-04-25T09:37:19;2.15;;;1.40;;
74223;SDS011;62585;49.706;18.216;2023-04-25T09:39:47;4.65;;;1.95;;
74223;SDS011;62585;49.706;18.216;2023-04-25T09:42:14;2.92;;;2.17;;
74223;SDS011;62585;49.706;18.216;2023-04-25T09:44:45;3.75;;;2.20;;
74223;SDS011;62585;49.706;18.216;2023-04-25T09:47:12;3.58;;;2.35;;
74223;SDS011;62585;49.706;18.216;2023-04-25T09:49:41;2.90;;;1.42;;
74223;SDS011;62585;49.706;18.216;2023-04-25T09:52:08;3.10;;;1.70;;
74223;SDS011;62585;49.706;18.216;2023-04-25T09:54:38;4.53;;;2.30;;
74223;SDS011;62585;49.706;18.216;2023-04-25T09:57:10;3.15;;;1.95;;
74223;SDS011;62585;49.706;18.216;2023-04-25T09:59:39;3.95;;;1.77;;
74223;SDS011;62585;49.706;18.216;2023-04-25T10:02:10;3.70;;;1.73;;
74223;SDS011;62585;49.706;18.216;2023-04-25T10:04:36;3.45;;;1.80;;
74223;SDS011;62585;49.706;18.216;2023-04-25T10:07:05;3.15;;;1.85;;
74223;SDS011;62585;49.706;18.216;2023-04-25T10:09:33;3.92;;;1.58;;
74223;SDS011;62585;49.706;18.216;2023-04-25T10:11:59;2.42;;;1.55;;
74223;SDS011;62585;49.706;18.216;2023-04-25T10:14:26;2.45;;;1.40;;
74223;SDS011;62585;49.706;18.216;2023-04-25T10:16:52;4.82;;;1.80;;
74223;SDS011;62585;49.706;18.216;2023-04-25T10:19:21;4.70;;;1.88;;
74223;SDS011;62585;49.706;18.216;2023-04-25T10:21:51;4.70;;;1.90;;
74223;SDS011;62585;49.706;18.216;2023-04-25T10:24:19;3.72;;;1.35;;
74223;SDS011;62585;49.706;18.216;2023-04-25T10:26:46;4.15;;;2.25;;
74223;SDS011;62585;49.706;18.216;2023-04-25T10:31:46;2.78;;;1.55;;
74223;SDS011;62585;49.706;18.216;2023-04-25T10:34:15;3.25;;;2.20;;
74223;SDS011;62585;49.706;18.216;2023-04-25T10:36:42;2.60;;;1.73;;
74223;SDS011;62585;49.706;18.216;2023-04-25T10:39:08;4.57;;;1.90;;
74223;SDS011;62585;49.706;18.216;2023-04-25T10:41:45;3.40;;;1.92;;
74223;SDS011;62585;49.706;18.216;2023-04-25T10:44:13;5.32;;;2.15;;
74223;SDS011;62585;49.706;18.216;2023-04-25T10:46:39;3.53;;;1.92;;
74223;SDS011;62585;49.706;18.216;2023-04-25T10:49:05;3.63;;;1.88;;
74223;SDS011;62585;49.706;18.216;2023-04-25T10:51:34;3.42;;;2.13;;
74223;SDS011;62585;49.706;18.216;2023-04-25T10:54:02;9.55;;;2.20;;
74223;SDS011;62585;49.706;18.216;2023-04-25T10:56:30;3.22;;;2.10;;
74223;SDS011;62585;49.706;18.216;2023-04-25T10:59:13;3.90;;;1.80;;
74223;SDS011;62585;49.706;18.216;2023-04-25T11:01:42;3.42;;;2.15;;
74223;SDS011;62585;49.706;18.216;2023-04-25T11:04:19;3.13;;;1.65;;
74223;SDS011;62585;49.706;18.216;2023-04-25T11:09:26;3.28;;;1.90;;
74223;SDS011;62585;49.706;18.216;2023-04-25T11:11:53;4.03;;;1.98;;
74223;SDS011;62585;49.706;18.216;2023-04-25T11:14:20;3.83;;;2.40;;
74223;SDS011;62585;49.706;18.216;2023-04-25T11:16:47;3.67;;;1.75;;
74223;SDS011;62585;49.706;18.216;2023-04-25T11:19:13;7.00;;;2.25;;
74223;SDS011;62585;49.706;18.216;2023-04-25T11:21:38;2.70;;;2.00;;
74223;SDS011;62585;49.706;18.216;2023-04-25T11:24:04;2.85;;;1.70;;
74223;SDS011;62585;49.706;18.216;2023-04-25T11:26:30;6.47;;;2.35;;
74223;SDS011;62585;49.706;18.216;2023-04-25T11:28:57;4.20;;;2.35;;
74223;SDS011;62585;49.706;18.216;2023-04-25T11:31:24;4.57;;;2.15;;
74223;SDS011;62585;49.706;18.216;2023-04-25T11:33:52;4.43;;;2.33;;
74223;SDS011;62585;49.706;18.216;2023-04-25T11:36:18;4.68;;;2.55;;
74223;SDS011;62585;49.706;18.216;2023-04-25T11:38:45;3.78;;;2.42;;
74223;SDS011;62585;49.706;18.216;2023-04-25T11:41:10;3.53;;;1.75;;
74223;SDS011;62585;49.706;18.216;2023-04-25T11:43:37;3.83;;;1.95;;
74223;SDS011;62585;49.706;18.216;2023-04-25T11:46:06;4.13;;;2.47;;
74223;SDS011;62585;49.706;18.216;2023-04-25T11:48:39;4.13;;;2.08;;
74223;SDS011;62585;49.706;18.216;2023-04-25T11:51:06;5.55;;;2.45;;
74223;SDS011;62585;49.706;18.216;2023-04-25T11:53:32;4.18;;;2.33;;
74223;SDS011;62585;49.706;18.216;2023-04-25T11:55:58;4.97;;;2.00;;
74223;SDS011;62585;49.706;18.216;2023-04-25T11:58:25;5.25;;;2.53;;
74223;SDS011;62585;49.706;18.216;2023-04-25T12:00:51;5.22;;;1.90;;
74223;SDS011;62585;49.706;18.216;2023-04-25T12:03:18;6.63;;;2.17;;
74223;SDS011;62585;49.706;18.216;2023-04-25T12:05:44;6.60;;;2.90;;
74223;SDS011;62585;49.706;18.216;2023-04-25T12:08:14;7.82;;;2.40;;
74223;SDS011;62585;49.706;18.216;2023-04-25T12:10:41;7.32;;;2.60;;
74223;SDS011;62585;49.706;18.216;2023-04-25T12:13:22;4.35;;;2.50;;
74223;SDS011;62585;49.706;18.216;2023-04-25T12:15:49;3.42;;;1.98;;
74223;SDS011;62585;49.706;18.216;2023-04-25T12:18:18;5.30;;;2.42;;
74223;SDS011;62585;49.706;18.216;2023-04-25T12:20:46;4.03;;;2.75;;
74223;SDS011;62585;49.706;18.216;2023-04-25T12:23:11;4.63;;;2.45;;
74223;SDS011;62585;49.706;18.216;2023-04-25T12:25:41;4.55;;;2.63;;
74223;SDS011;62585;49.706;18.216;2023-04-25T12:28:16;4.28;;;2.28;;
74223;SDS011;62585;49.706;18.216;2023-04-25T12:30:57;4.82;;;2.63;;
74223;SDS011;62585;49.706;18.216;2023-04-25T12:33:25;4.88;;;2.67;;
74223;SDS011;62585;49.706;18.216;2023-04-25T12:35:52;7.70;;;2.80;;
74223;SDS011;62585;49.706;18.216;2023-04-25T12:40:48;4.80;;;2.85;;
74223;SDS011;62585;49.706;18.216;2023-04-25T12:43:14;4.05;;;2.47;;
74223;SDS011;62585;49.706;18.216;2023-04-25T12:45:40;6.43;;;2.92;;
74223;SDS011;62585;49.706;18.216;2023-04-25T12:48:06;3.90;;;2.72;;
74223;SDS011;62585;49.706;18.216;2023-04-25T12:50:31;4.38;;;2.53;;
74223;SDS011;62585;49.706;18.216;2023-04-25T12:52:57;5.35;;;3.15;;
74223;SDS011;62585;49.706;18.216;2023-04-25T12:55:23;4.75;;;2.63;;
74223;SDS011;62585;49.706;18.216;2023-04-25T12:57:49;9.88;;;2.85;;
74223;SDS011;62585;49.706;18.216;2023-04-25T13:00:14;8.00;;;2.58;;
74223;SDS011;62585;49.706;18.216;2023-04-25T13:02:43;7.60;;;2.45;;
74223;SDS011;62585;49.706;18.216;2023-04-25T13:05:09;5.70;;;2.90;;
74223;SDS011;62585;49.706;18.216;2023-04-25T13:07:34;4.68;;;2.55;;
74223;SDS011;62585;49.706;18.216;2023-04-25T13:10:00;4.85;;;2.63;;
74223;SDS011;62585;49.706;18.216;2023-04-25T13:12:28;4.22;;;2.80;;
74223;SDS011;62585;49.706;18.216;2023-04-25T13:14:53;5.95;;;2.95;;
74223;SDS011;62585;49.706;18.216;2023-04-25T13:17:19;4.60;;;2.83;;
74223;SDS011;62585;49.706;18.216;2023-04-25T13:19:45;5.57;;;2.88;;
74223;SDS011;62585;49.706;18.216;2023-04-25T13:22:11;4.35;;;2.38;;
74223;SDS011;62585;49.706;18.216;2023-04-25T13:24:37;2.75;;;1.73;;
74223;SDS011;62585;49.706;18.216;2023-04-25T13:27:02;5.20;;;2.75;;
74223;SDS011;62585;49.706;18.216;2023-04-25T13:29:28;5.05;;;2.10;;
74223;SDS011;62585;49.706;18.216;2023-04-25T13:31:54;4.30;;;2.47;;
74223;SDS011;62585;49.706;18.216;2023-04-25T13:34:20;5.78;;;3.15;;
74223;SDS011;62585;49.706;18.216;2023-04-25T13:36:46;8.75;;;3.25;;
74223;SDS011;62585;49.706;18.216;2023-04-25T13:39:11;3.90;;;3.10;;
74223;SDS011;62585;49.706;18.216;2023-04-25T13:41:37;6.45;;;3.45;;
74223;SDS011;62585;49.706;18.216;2023-04-25T13:44:03;3.05;;;2.60;;
74223;SDS011;62585;49.706;18.216;2023-04-25T13:46:29;4.45;;;2.97;;
74223;SDS011;62585;49.706;18.216;2023-04-25T13:48:55;6.30;;;3.30;;
74223;SDS011;62585;49.706;18.216;2023-04-25T13:51:20;4.00;;;2.95;;
74223;SDS011;62585;49.706;18.216;2023-04-25T13:53:46;4.40;;;2.78;;
74223;SDS011;62585;49.706;18.216;2023-04-25T13:56:12;4.63;;;3.05;;
74223;SDS011;62585;49.706;18.216;2023-04-25T13:58:38;6.50;;;2.67;;
74223;SDS011;62585;49.706;18.216;2023-04-25T14:01:04;4.18;;;2.72;;
74223;SDS011;62585;49.706;18.216;2023-04-25T14:03:30;3.60;;;2.58;;
74223;SDS011;62585;49.706;18.216;2023-04-25T14:05:56;3.63;;;2.80;;
74223;SDS011;62585;49.706;18.216;2023-04-25T14:08:21;5.47;;;2.80;;
74223;SDS011;62585;49.706;18.216;2023-04-25T14:10:47;5.30;;;2.45;;
74223;SDS011;62585;49.706;18.216;2023-04-25T14:13:13;6.53;;;2.78;;
74223;SDS011;62585;49.706;18.216;2023-04-25T14:15:39;7.95;;;3.42;;
74223;SDS011;62585;49.706;18.216;2023-04-25T14:18:04;5.13;;;2.90;;
74223;SDS011;62585;49.706;18.216;2023-04-25T14:20:31;5.32;;;3.60;;
74223;SDS011;62585;49.706;18.216;2023-04-25T14:22:57;6.38;;;3.22;;
74223;SDS011;62585;49.706;18.216;2023-04-25T14:25:24;6.07;;;3.08;;
74223;SDS011;62585;49.706;18.216;2023-04-25T14:27:49;5.05;;;2.72;;
74223;SDS011;62585;49.706;18.216;2023-04-25T14:30:16;6.88;;;2.70;;
74223;SDS011;62585;49.706;18.216;2023-04-25T14:32:43;4.10;;;2.78;;
74223;SDS011;62585;49.706;18.216;2023-04-25T14:35:09;5.40;;;2.70;;
74223;SDS011;62585;49.706;18.216;2023-04-25T14:37:35;4.00;;;2.20;;
74223;SDS011;62585;49.706;18.216;2023-04-25T14:40:01;5.57;;;2.95;;
74223;SDS011;62585;49.706;18.216;2023-04-25T14:42:27;6.03;;;3.45;;
74223;SDS011;62585;49.706;18.216;2023-04-25T14:44:53;3.80;;;2.80;;
74223;SDS011;62585;49.706;18.216;2023-04-25T14:47:19;4.55;;;2.78;;
74223;SDS011;62585;49.706;18.216;2023-04-25T14:49:45;2.28;;;1.42;;
74223;SDS011;62585;49.706;18.216;2023-04-25T14:52:16;4.60;;;1.85;;
74223;SDS011;62585;49.706;18.216;2023-04-25T14:54:42;3.88;;;2.25;;